sensor_id;sensor_type;location;lat;lon;timestamp;pressure;altitude;pressure_sealevel;temperature;humidity
63343;BME280;49465;57.664;39.686;2023-02-11T00:02:34;99689.22;;;1.29;56.78
63343;BME280;49465;57.664;39.686;2023-02-11T00:05:14;99696.19;;;1.27;56.96
63343;BME280;49465;57.664;39.686;2023-02-11T00:07:53;99699.41;;;1.57;56.01
63343;BME280;49465;57.664;39.686;2023-02-11T00:10:36;99697.69;;;1.32;57.34
63343;BME280;49465;57.664;39.686;2023-02-11T00:13:14;99700.25;;;1.57;56.24
63343;BME280;49465;57.664;39.686;2023-02-11T00:15:54;99698.25;;;1.64;56.33
63343;BME280;49465;57.664;39.686;2023-02-11T00:18:30;99700.13;;;1.61;56.53
63343;BME280;49465;57.664;39.686;2023-02-11T00:21:11;99697.19;;;1.46;57.10
63343;BME280;49465;57.664;39.686;2023-02-11T00:23:50;99695.19;;;1.54;57.28
63343;BME280;49465;57.664;39.686;2023-02-11T00:26:33;99708.44;;;1.69;57.14
63343;BME280;49465;57.664;39.686;2023-02-11T00:29:13;99697.19;;;1.70;56.71
63343;BME280;49465;57.664;39.686;2023-02-11T00:31:58;99689.63;;;1.65;57.05
63343;BME280;49465;57.664;39.686;2023-02-11T00:34:39;99686.88;;;1.46;57.28
63343;BME280;49465;57.664;39.686;2023-02-11T00:37:18;99684.50;;;1.64;57.36
63343;BME280;49465;57.664;39.686;2023-02-11T00:39:58;99683.16;;;1.53;58.01
63343;BME280;49465;57.664;39.686;2023-02-11T00:42:37;99686.19;;;1.41;57.81
63343;BME280;49465;57.664;39.686;2023-02-11T00:45:14;99689.78;;;1.61;57.13
63343;BME280;49465;57.664;39.686;2023-02-11T00:47:46;99687.47;;;1.53;57.60
63343;BME280;49465;57.664;39.686;2023-02-11T00:50:18;99686.91;;;1.45;58.17
63343;BME280;49465;57.664;39.686;2023-02-11T00:52:55;99685.84;;;1.74;57.08
63343;BME280;49465;57.664;39.686;2023-02-11T00:55:32;99690.91;;;1.77;56.94
63343;BME280;49465;57.664;39.686;2023-02-11T00:58:12;99686.13;;;1.43;57.55
63343;BME280;49465;57.664;39.686;2023-02-11T01:00:55;99691.19;;;1.69;57.09
63343;BME280;49465;57.664;39.686;2023-02-11T01:03:30;99694.59;;;1.93;56.50
63343;BME280;49465;57.664;39.686;2023-02-11T01:06:11;99701.41;;;1.49;57.41
63343;BME280;49465;57.664;39.686;2023-02-11T01:08:45;99701.25;;;1.77;56.28
63343;BME280;49465;57.664;39.686;2023-02-11T01:11:19;99702.28;;;1.73;56.84
63343;BME280;49465;57.664;39.686;2023-02-11T01:13:56;99705.78;;;1.47;57.60
63343;BME280;49465;57.664;39.686;2023-02-11T01:16:33;99707.34;;;1.51;57.50
63343;BME280;49465;57.664;39.686;2023-02-11T01:19:13;99706.56;;;1.49;57.58
63343;BME280;49465;57.664;39.686;2023-02-11T01:21:53;99709.59;;;1.36;57.80
63343;BME280;49465;57.664;39.686;2023-02-11T01:24:33;99704.25;;;1.41;57.56
63343;BME280;49465;57.664;39.686;2023-02-11T01:27:15;99721.16;;;1.51;57.38
63343;BME280;49465;57.664;39.686;2023-02-11T01:29:53;99714.00;;;1.34;57.79
63343;BME280;49465;57.664;39.686;2023-02-11T01:32:33;99706.25;;;1.34;58.04
63343;BME280;49465;57.664;39.686;2023-02-11T01:35:09;99715.00;;;1.30;58.01
63343;BME280;49465;57.664;39.686;2023-02-11T01:37:48;99717.41;;;1.58;57.31
63343;BME280;49465;57.664;39.686;2023-02-11T01:40:29;99715.06;;;1.52;57.35
63343;BME280;49465;57.664;39.686;2023-02-11T01:43:08;99718.16;;;1.38;57.58
63343;BME280;49465;57.664;39.686;2023-02-11T01:48:56;99714.47;;;1.69;56.92
63343;BME280;49465;57.664;39.686;2023-02-11T01:51:41;99718.44;;;1.54;57.64
63343;BME280;49465;57.664;39.686;2023-02-11T01:54:22;99726.38;;;1.73;56.84
63343;BME280;49465;57.664;39.686;2023-02-11T01:57:14;99731.84;;;1.64;56.69
63343;BME280;49465;57.664;39.686;2023-02-11T02:00:52;99726.97;;;1.80;56.33
63343;BME280;49465;57.664;39.686;2023-02-11T02:03:21;99744.28;;;1.54;57.12
63343;BME280;49465;57.664;39.686;2023-02-11T02:06:14;99735.41;;;1.62;57.37
63343;BME280;49465;57.664;39.686;2023-02-11T02:08:49;99742.66;;;1.52;56.85
63343;BME280;49465;57.664;39.686;2023-02-11T02:11:28;99737.81;;;1.43;56.96
63343;BME280;49465;57.664;39.686;2023-02-11T02:14:05;99741.38;;;1.64;56.23
63343;BME280;49465;57.664;39.686;2023-02-11T02:16:55;99735.75;;;1.76;56.49
63343;BME280;49465;57.664;39.686;2023-02-11T02:20:01;99742.56;;;1.78;56.04
63343;BME280;49465;57.664;39.686;2023-02-11T02:23:12;99746.97;;;1.51;56.89
63343;BME280;49465;57.664;39.686;2023-02-11T02:35:01;99755.66;;;1.49;56.44
63343;BME280;49465;57.664;39.686;2023-02-11T02:41:07;99760.97;;;1.69;56.11
63343;BME280;49465;57.664;39.686;2023-02-11T02:43:54;99759.47;;;1.64;55.86
63343;BME280;49465;57.664;39.686;2023-02-11T02:46:35;99769.84;;;1.37;56.75
63343;BME280;49465;57.664;39.686;2023-02-11T02:49:17;99774.06;;;1.65;56.20
63343;BME280;49465;57.664;39.686;2023-02-11T02:55:39;99771.34;;;1.44;57.01
63343;BME280;49465;57.664;39.686;2023-02-11T02:58:30;99784.19;;;1.71;57.04
63343;BME280;49465;57.664;39.686;2023-02-11T03:10:18;99775.00;;;1.62;57.13
63343;BME280;49465;57.664;39.686;2023-02-11T03:12:56;99786.66;;;1.74;57.46
63343;BME280;49465;57.664;39.686;2023-02-11T03:15:31;99784.25;;;1.69;56.79
63343;BME280;49465;57.664;39.686;2023-02-11T03:18:10;99783.41;;;1.69;57.54
63343;BME280;49465;57.664;39.686;2023-02-11T03:20:47;99788.44;;;1.72;57.36
63343;BME280;49465;57.664;39.686;2023-02-11T03:23:49;99781.00;;;1.63;57.56
63343;BME280;49465;57.664;39.686;2023-02-11T03:32:30;99773.41;;;1.83;57.20
63343;BME280;49465;57.664;39.686;2023-02-11T03:35:22;99786.59;;;1.75;57.45
63343;BME280;49465;57.664;39.686;2023-02-11T03:38:10;99790.94;;;1.75;57.18
63343;BME280;49465;57.664;39.686;2023-02-11T03:40:49;99783.38;;;1.45;58.18
63343;BME280;49465;57.664;39.686;2023-02-11T03:43:33;99784.72;;;1.55;57.51
63343;BME280;49465;57.664;39.686;2023-02-11T03:46:17;99782.25;;;1.76;56.81
63343;BME280;49465;57.664;39.686;2023-02-11T03:48:56;99777.44;;;1.67;56.82
63343;BME280;49465;57.664;39.686;2023-02-11T03:51:34;99791.31;;;1.64;57.11
63343;BME280;49465;57.664;39.686;2023-02-11T03:54:15;99793.88;;;1.64;57.17
63343;BME280;49465;57.664;39.686;2023-02-11T03:57:05;99789.59;;;1.88;56.30
63343;BME280;49465;57.664;39.686;2023-02-11T03:59:57;99793.66;;;1.94;56.45
63343;BME280;49465;57.664;39.686;2023-02-11T04:02:36;99792.06;;;1.91;56.30
63343;BME280;49465;57.664;39.686;2023-02-11T04:05:15;99800.38;;;2.00;56.18
63343;BME280;49465;57.664;39.686;2023-02-11T04:07:52;99794.56;;;1.69;56.69
63343;BME280;49465;57.664;39.686;2023-02-11T04:10:29;99800.13;;;1.82;56.50
63343;BME280;49465;57.664;39.686;2023-02-11T04:13:09;99795.47;;;1.68;56.68
63343;BME280;49465;57.664;39.686;2023-02-11T04:15:51;99794.63;;;1.68;56.88
63343;BME280;49465;57.664;39.686;2023-02-11T04:18:31;99793.53;;;1.75;56.80
63343;BME280;49465;57.664;39.686;2023-02-11T04:21:08;99799.19;;;1.85;56.69
63343;BME280;49465;57.664;39.686;2023-02-11T04:23:49;99789.66;;;1.87;56.47
63343;BME280;49465;57.664;39.686;2023-02-11T04:26:35;99786.88;;;1.91;56.30
63343;BME280;49465;57.664;39.686;2023-02-11T04:29:17;99808.56;;;1.64;56.91
63343;BME280;49465;57.664;39.686;2023-02-11T04:32:03;99810.94;;;1.93;56.39
63343;BME280;49465;57.664;39.686;2023-02-11T04:34:38;99819.31;;;1.76;56.22
63343;BME280;49465;57.664;39.686;2023-02-11T04:37:19;99819.31;;;2.24;55.47
63343;BME280;49465;57.664;39.686;2023-02-11T04:40:03;99820.78;;;2.07;55.15
63343;BME280;49465;57.664;39.686;2023-02-11T04:42:43;99812.56;;;1.96;55.64
63343;BME280;49465;57.664;39.686;2023-02-11T04:45:18;99827.38;;;1.67;56.13
63343;BME280;49465;57.664;39.686;2023-02-11T04:47:58;99822.69;;;1.78;56.19
63343;BME280;49465;57.664;39.686;2023-02-11T04:50:37;99836.81;;;1.68;56.44
63343;BME280;49465;57.664;39.686;2023-02-11T04:53:20;99835.63;;;1.78;55.87
63343;BME280;49465;57.664;39.686;2023-02-11T04:55:54;99836.91;;;1.90;55.03
63343;BME280;49465;57.664;39.686;2023-02-11T04:58:37;99835.44;;;1.83;55.21
63343;BME280;49465;57.664;39.686;2023-02-11T05:01:18;99850.28;;;2.02;54.98
63343;BME280;49465;57.664;39.686;2023-02-11T05:03:50;99841.22;;;1.90;55.15
63343;BME280;49465;57.664;39.686;2023-02-11T05:06:36;99853.50;;;2.08;55.14
63343;BME280;49465;57.664;39.686;2023-02-11T05:09:15;99853.94;;;1.96;54.92
63343;BME280;49465;57.664;39.686;2023-02-11T05:11:55;99856.22;;;1.80;54.86
63343;BME280;49465;57.664;39.686;2023-02-11T05:14:27;99864.56;;;1.88;54.70
63343;BME280;49465;57.664;39.686;2023-02-11T05:17:06;99859.53;;;1.84;54.99
63343;BME280;49465;57.664;39.686;2023-02-11T05:19:46;99861.28;;;1.83;54.94
63343;BME280;49465;57.664;39.686;2023-02-11T05:22:26;99859.19;;;1.94;54.53
63343;BME280;49465;57.664;39.686;2023-02-11T05:25:03;99864.72;;;1.84;54.49
63343;BME280;49465;57.664;39.686;2023-02-11T05:27:44;99869.00;;;1.85;54.14
63343;BME280;49465;57.664;39.686;2023-02-11T05:30:24;99870.59;;;1.89;54.13
63343;BME280;49465;57.664;39.686;2023-02-11T05:32:59;99867.56;;;2.01;54.18
63343;BME280;49465;57.664;39.686;2023-02-11T05:35:37;99872.06;;;1.71;53.99
63343;BME280;49465;57.664;39.686;2023-02-11T05:38:17;99875.81;;;1.87;53.78
63343;BME280;49465;57.664;39.686;2023-02-11T05:40:56;99874.00;;;1.89;54.13
63343;BME280;49465;57.664;39.686;2023-02-11T05:43:34;99876.72;;;1.86;53.48
63343;BME280;49465;57.664;39.686;2023-02-11T05:46:06;99877.94;;;2.00;53.16
63343;BME280;49465;57.664;39.686;2023-02-11T05:48:45;99882.50;;;1.68;54.15
63343;BME280;49465;57.664;39.686;2023-02-11T05:51:20;99883.78;;;1.81;53.58
63343;BME280;49465;57.664;39.686;2023-02-11T05:53:53;99891.16;;;1.92;52.85
63343;BME280;49465;57.664;39.686;2023-02-11T05:56:38;99892.84;;;1.68;54.01
63343;BME280;49465;57.664;39.686;2023-02-11T05:59:19;99902.97;;;1.74;53.43
63343;BME280;49465;57.664;39.686;2023-02-11T06:01:56;99897.31;;;1.88;53.21
63343;BME280;49465;57.664;39.686;2023-02-11T06:04:36;99911.50;;;1.76;53.11
63343;BME280;49465;57.664;39.686;2023-02-11T06:07:13;99904.34;;;1.84;52.46
63343;BME280;49465;57.664;39.686;2023-02-11T06:09:50;99911.94;;;1.64;53.37
63343;BME280;49465;57.664;39.686;2023-02-11T06:12:28;99914.25;;;1.71;53.10
63343;BME280;49465;57.664;39.686;2023-02-11T06:15:12;99910.16;;;1.66;53.89
63343;BME280;49465;57.664;39.686;2023-02-11T06:17:44;99909.53;;;1.59;52.96
63343;BME280;49465;57.664;39.686;2023-02-11T06:20:27;99914.59;;;1.87;52.86
63343;BME280;49465;57.664;39.686;2023-02-11T06:23:12;99906.84;;;1.61;53.38
63343;BME280;49465;57.664;39.686;2023-02-11T06:25:49;99910.97;;;1.66;53.43
63343;BME280;49465;57.664;39.686;2023-02-11T06:28:29;99905.81;;;1.91;51.58
63343;BME280;49465;57.664;39.686;2023-02-11T06:31:15;99910.28;;;2.11;52.07
63343;BME280;49465;57.664;39.686;2023-02-11T06:33:52;99915.00;;;2.00;51.97
63343;BME280;49465;57.664;39.686;2023-02-11T06:36:39;99915.31;;;2.16;52.56
63343;BME280;49465;57.664;39.686;2023-02-11T06:39:14;99909.16;;;1.95;52.89
63343;BME280;49465;57.664;39.686;2023-02-11T06:41:49;99914.34;;;2.18;52.02
63343;BME280;49465;57.664;39.686;2023-02-11T06:44:29;99917.72;;;2.21;52.23
63343;BME280;49465;57.664;39.686;2023-02-11T06:47:06;99917.97;;;2.38;51.52
63343;BME280;49465;57.664;39.686;2023-02-11T06:49:41;99914.63;;;2.34;51.72
63343;BME280;49465;57.664;39.686;2023-02-11T06:52:16;99926.91;;;2.53;52.24
63343;BME280;49465;57.664;39.686;2023-02-11T06:54:56;99919.03;;;2.56;52.25
63343;BME280;49465;57.664;39.686;2023-02-11T06:57:31;99912.53;;;2.68;51.02
63343;BME280;49465;57.664;39.686;2023-02-11T07:00:15;99911.91;;;2.63;52.69
63343;BME280;49465;57.664;39.686;2023-02-11T07:02:55;99917.38;;;2.77;52.28
63343;BME280;49465;57.664;39.686;2023-02-11T07:05:34;99911.44;;;2.97;51.69
63343;BME280;49465;57.664;39.686;2023-02-11T07:08:14;99904.56;;;2.96;51.36
63343;BME280;49465;57.664;39.686;2023-02-11T07:10:51;99911.31;;;3.00;50.90
63343;BME280;49465;57.664;39.686;2023-02-11T07:13:25;99909.50;;;3.02;50.97
63343;BME280;49465;57.664;39.686;2023-02-11T07:16:17;99908.59;;;3.03;51.29
63343;BME280;49465;57.664;39.686;2023-02-11T07:18:54;99899.38;;;3.18;51.07
63343;BME280;49465;57.664;39.686;2023-02-11T07:21:31;99909.56;;;3.01;50.27
63343;BME280;49465;57.664;39.686;2023-02-11T07:24:12;99904.13;;;3.29;50.98
63343;BME280;49465;57.664;39.686;2023-02-11T07:26:51;99903.47;;;3.24;50.46
63343;BME280;49465;57.664;39.686;2023-02-11T07:29:26;99909.19;;;3.32;49.23
63343;BME280;49465;57.664;39.686;2023-02-11T07:32:12;99909.34;;;3.27;51.11
63343;BME280;49465;57.664;39.686;2023-02-11T07:34:41;99904.25;;;3.26;49.46
63343;BME280;49465;57.664;39.686;2023-02-11T07:37:21;99905.81;;;3.30;49.08
63343;BME280;49465;57.664;39.686;2023-02-11T07:39:58;99910.59;;;3.39;50.13
63343;BME280;49465;57.664;39.686;2023-02-11T07:42:44;99904.91;;;3.31;50.16
63343;BME280;49465;57.664;39.686;2023-02-11T07:45:19;99903.53;;;3.22;50.61
63343;BME280;49465;57.664;39.686;2023-02-11T07:47:59;99906.41;;;3.36;48.75
63343;BME280;49465;57.664;39.686;2023-02-11T07:50:36;99915.69;;;3.42;48.90
63343;BME280;49465;57.664;39.686;2023-02-11T07:53:08;99909.28;;;3.08;49.14
63343;BME280;49465;57.664;39.686;2023-02-11T07:55:51;99914.72;;;3.23;50.78
63343;BME280;49465;57.664;39.686;2023-02-11T07:58:39;99916.25;;;3.49;50.63
63343;BME280;49465;57.664;39.686;2023-02-11T08:01:21;99928.91;;;3.56;48.91
63343;BME280;49465;57.664;39.686;2023-02-11T08:03:58;99916.53;;;3.21;50.63
63343;BME280;49465;57.664;39.686;2023-02-11T08:06:34;99926.22;;;3.15;48.53
63343;BME280;49465;57.664;39.686;2023-02-11T08:09:17;99925.16;;;3.21;49.81
63343;BME280;49465;57.664;39.686;2023-02-11T08:11:54;99921.88;;;3.17;50.14
63343;BME280;49465;57.664;39.686;2023-02-11T08:14:28;99922.25;;;3.29;48.40
63343;BME280;49465;57.664;39.686;2023-02-11T08:17:06;99916.50;;;3.43;49.18
63343;BME280;49465;57.664;39.686;2023-02-11T08:19:41;99922.19;;;3.30;48.50
63343;BME280;49465;57.664;39.686;2023-02-11T08:22:18;99924.50;;;3.16;49.49
63343;BME280;49465;57.664;39.686;2023-02-11T08:24:55;99922.94;;;3.12;49.34
63343;BME280;49465;57.664;39.686;2023-02-11T08:27:28;99911.59;;;3.36;48.39
63343;BME280;49465;57.664;39.686;2023-02-11T08:30:09;99912.28;;;3.20;49.06
63343;BME280;49465;57.664;39.686;2023-02-11T08:32:44;99908.25;;;3.12;49.36
63343;BME280;49465;57.664;39.686;2023-02-11T08:35:15;99896.41;;;3.27;49.21
63343;BME280;49465;57.664;39.686;2023-02-11T08:37:54;99904.56;;;3.18;49.97
63343;BME280;49465;57.664;39.686;2023-02-11T08:40:33;99902.19;;;3.34;50.04
63343;BME280;49465;57.664;39.686;2023-02-11T08:43:12;99901.94;;;3.40;49.68
63343;BME280;49465;57.664;39.686;2023-02-11T08:45:50;99902.97;;;3.36;49.32
63343;BME280;49465;57.664;39.686;2023-02-11T08:48:25;99888.25;;;3.36;49.46
63343;BME280;49465;57.664;39.686;2023-02-11T08:51:11;99893.34;;;3.40;49.78
63343;BME280;49465;57.664;39.686;2023-02-11T08:53:59;99873.03;;;3.29;50.09
63343;BME280;49465;57.664;39.686;2023-02-11T08:56:38;99883.91;;;3.16;49.77
63343;BME280;49465;57.664;39.686;2023-02-11T08:59:15;99889.38;;;3.09;49.48
63343;BME280;49465;57.664;39.686;2023-02-11T09:01:51;99876.69;;;3.23;48.18
63343;BME280;49465;57.664;39.686;2023-02-11T09:04:29;99891.00;;;3.33;50.26
63343;BME280;49465;57.664;39.686;2023-02-11T09:07:09;99885.81;;;3.11;49.64
63343;BME280;49465;57.664;39.686;2023-02-11T09:09:56;99881.56;;;3.31;49.42
63343;BME280;49465;57.664;39.686;2023-02-11T09:12:42;99879.41;;;3.42;48.68
63343;BME280;49465;57.664;39.686;2023-02-11T09:15:15;99878.41;;;3.45;48.51
63343;BME280;49465;57.664;39.686;2023-02-11T09:18:00;99881.47;;;3.34;48.77
63343;BME280;49465;57.664;39.686;2023-02-11T09:20:37;99870.78;;;3.42;47.80
63343;BME280;49465;57.664;39.686;2023-02-11T09:23:21;99878.75;;;3.58;47.08
63343;BME280;49465;57.664;39.686;2023-02-11T09:25:53;99874.16;;;3.64;47.63
63343;BME280;49465;57.664;39.686;2023-02-11T09:28:37;99874.34;;;3.80;48.07
63343;BME280;49465;57.664;39.686;2023-02-11T09:31:14;99861.97;;;3.46;49.19
63343;BME280;49465;57.664;39.686;2023-02-11T09:34:04;99869.59;;;3.49;50.01
63343;BME280;49465;57.664;39.686;2023-02-11T09:36:46;99862.94;;;3.64;48.64
63343;BME280;49465;57.664;39.686;2023-02-11T09:39:20;99860.47;;;3.40;49.08
63343;BME280;49465;57.664;39.686;2023-02-11T09:42:15;99862.13;;;3.82;48.65
63343;BME280;49465;57.664;39.686;2023-02-11T09:44:54;99843.34;;;3.56;47.59
63343;BME280;49465;57.664;39.686;2023-02-11T09:47:54;99843.84;;;4.06;48.38
63343;BME280;49465;57.664;39.686;2023-02-11T09:50:48;99850.81;;;4.04;48.53
63343;BME280;49465;57.664;39.686;2023-02-11T09:53:40;99846.22;;;4.10;47.64
63343;BME280;49465;57.664;39.686;2023-02-11T09:56:20;99850.00;;;4.03;47.42
63343;BME280;49465;57.664;39.686;2023-02-11T09:59:00;99843.66;;;3.90;46.70
63343;BME280;49465;57.664;39.686;2023-02-11T10:01:43;99840.19;;;4.10;46.65
63343;BME280;49465;57.664;39.686;2023-02-11T10:04:45;99834.09;;;4.30;47.56
63343;BME280;49465;57.664;39.686;2023-02-11T10:07:39;99833.41;;;4.26;47.13
63343;BME280;49465;57.664;39.686;2023-02-11T10:10:34;99828.88;;;4.11;48.27
63343;BME280;49465;57.664;39.686;2023-02-11T10:16:03;99832.81;;;3.61;48.51
63343;BME280;49465;57.664;39.686;2023-02-11T10:19:00;99828.69;;;3.96;47.83
63343;BME280;49465;57.664;39.686;2023-02-11T10:22:07;99825.25;;;4.34;46.72
63343;BME280;49465;57.664;39.686;2023-02-11T10:24:43;99824.50;;;3.73;48.03
63343;BME280;49465;57.664;39.686;2023-02-11T10:27:25;99824.88;;;4.04;47.58
63343;BME280;49465;57.664;39.686;2023-02-11T10:33:03;99814.16;;;3.92;48.95
63343;BME280;49465;57.664;39.686;2023-02-11T10:35:39;99810.03;;;4.07;47.71
63343;BME280;49465;57.664;39.686;2023-02-11T10:38:14;99810.19;;;4.04;47.15
63343;BME280;49465;57.664;39.686;2023-02-11T10:40:44;99794.31;;;3.91;47.72
63343;BME280;49465;57.664;39.686;2023-02-11T10:43:28;99798.16;;;4.02;47.18
63343;BME280;49465;57.664;39.686;2023-02-11T10:46:09;99800.06;;;4.17;46.97
63343;BME280;49465;57.664;39.686;2023-02-11T10:48:50;99793.69;;;4.24;48.02
63343;BME280;49465;57.664;39.686;2023-02-11T10:51:32;99786.97;;;4.20;46.89
63343;BME280;49465;57.664;39.686;2023-02-11T10:56:57;99778.78;;;4.47;46.69
63343;BME280;49465;57.664;39.686;2023-02-11T10:59:31;99789.28;;;4.26;47.31
63343;BME280;49465;57.664;39.686;2023-02-11T11:02:31;99781.19;;;4.51;46.86
63343;BME280;49465;57.664;39.686;2023-02-11T11:05:23;99775.34;;;4.65;47.05
63343;BME280;49465;57.664;39.686;2023-02-11T11:08:04;99774.94;;;4.36;47.27
63343;BME280;49465;57.664;39.686;2023-02-11T11:10:43;99767.38;;;4.51;46.59
63343;BME280;49465;57.664;39.686;2023-02-11T11:13:35;99764.91;;;4.48;47.10
63343;BME280;49465;57.664;39.686;2023-02-11T11:16:19;99763.16;;;4.48;46.79
63343;BME280;49465;57.664;39.686;2023-02-11T11:18:48;99754.47;;;4.30;46.55
63343;BME280;49465;57.664;39.686;2023-02-11T11:21:49;99752.56;;;4.53;46.34
63343;BME280;49465;57.664;39.686;2023-02-11T11:26:56;99733.41;;;4.36;46.46
63343;BME280;49465;57.664;39.686;2023-02-11T11:29:40;99748.03;;;4.56;47.34
63343;BME280;49465;57.664;39.686;2023-02-11T11:34:59;99746.25;;;4.40;46.51
63343;BME280;49465;57.664;39.686;2023-02-11T11:37:36;99743.81;;;4.36;46.39
63343;BME280;49465;57.664;39.686;2023-02-11T11:40:33;99735.75;;;4.60;45.58
63343;BME280;49465;57.664;39.686;2023-02-11T11:43:17;99727.19;;;4.58;44.94
63343;BME280;49465;57.664;39.686;2023-02-11T11:45:57;99720.84;;;4.46;44.59
63343;BME280;49465;57.664;39.686;2023-02-11T11:48:44;99724.66;;;4.56;46.12
63343;BME280;49465;57.664;39.686;2023-02-11T11:51:14;99725.03;;;4.31;45.43
63343;BME280;49465;57.664;39.686;2023-02-11T11:54:03;99720.34;;;4.57;46.43
63343;BME280;49465;57.664;39.686;2023-02-11T11:56:51;99713.41;;;4.39;46.09
63343;BME280;49465;57.664;39.686;2023-02-11T11:59:22;99713.88;;;4.29;46.29
63343;BME280;49465;57.664;39.686;2023-02-11T12:02:27;99716.81;;;4.58;45.66
63343;BME280;49465;57.664;39.686;2023-02-11T12:05:11;99717.38;;;4.28;45.91
63343;BME280;49465;57.664;39.686;2023-02-11T12:08:10;99698.56;;;4.60;46.59
63343;BME280;49465;57.664;39.686;2023-02-11T12:20:01;99705.34;;;4.45;45.40
63343;BME280;49465;57.664;39.686;2023-02-11T12:34:53;99672.75;;;4.56;46.51
63343;BME280;49465;57.664;39.686;2023-02-11T12:37:47;99674.72;;;4.34;46.89
63343;BME280;49465;57.664;39.686;2023-02-11T12:40:30;99664.59;;;4.10;45.48
63343;BME280;49465;57.664;39.686;2023-02-11T12:43:40;99665.09;;;4.36;46.14
63343;BME280;49465;57.664;39.686;2023-02-11T12:46:41;99656.16;;;4.24;45.53
63343;BME280;49465;57.664;39.686;2023-02-11T12:52:05;99650.69;;;4.83;45.00
63343;BME280;49465;57.664;39.686;2023-02-11T12:55:00;99648.38;;;4.42;45.48
63343;BME280;49465;57.664;39.686;2023-02-11T12:57:33;99659.13;;;3.97;45.53
63343;BME280;49465;57.664;39.686;2023-02-11T13:00:22;99656.88;;;4.09;44.73
63343;BME280;49465;57.664;39.686;2023-02-11T13:06:17;99640.22;;;3.95;46.00
63343;BME280;49465;57.664;39.686;2023-02-11T13:09:19;99635.44;;;4.05;46.23
63343;BME280;49465;57.664;39.686;2023-02-11T13:12:00;99636.84;;;3.93;46.97
63343;BME280;49465;57.664;39.686;2023-02-11T13:14:57;99626.53;;;3.74;47.28
63343;BME280;49465;57.664;39.686;2023-02-11T13:17:59;99624.47;;;3.81;46.80
63343;BME280;49465;57.664;39.686;2023-02-11T13:24:09;99607.91;;;3.84;45.96
63343;BME280;49465;57.664;39.686;2023-02-11T13:35:38;99588.22;;;3.43;47.53
63343;BME280;49465;57.664;39.686;2023-02-11T13:38:28;99571.44;;;3.69;47.99
63343;BME280;49465;57.664;39.686;2023-02-11T13:41:38;99575.84;;;3.67;47.08
63343;BME280;49465;57.664;39.686;2023-02-11T13:47:13;99566.25;;;3.69;47.13
63343;BME280;49465;57.664;39.686;2023-02-11T13:50:00;99560.53;;;3.44;47.38
63343;BME280;49465;57.664;39.686;2023-02-11T13:52:39;99554.38;;;3.27;47.65
63343;BME280;49465;57.664;39.686;2023-02-11T13:55:23;99542.19;;;3.48;48.33
63343;BME280;49465;57.664;39.686;2023-02-11T14:00:54;99527.63;;;3.27;48.09
63343;BME280;49465;57.664;39.686;2023-02-11T14:03:37;99527.28;;;3.34;48.55
63343;BME280;49465;57.664;39.686;2023-02-11T14:06:28;99517.56;;;3.21;48.79
63343;BME280;49465;57.664;39.686;2023-02-11T14:15:20;99484.06;;;3.35;47.75
63343;BME280;49465;57.664;39.686;2023-02-11T14:17:46;99471.66;;;2.86;47.68
63343;BME280;49465;57.664;39.686;2023-02-11T14:20:39;99461.38;;;3.21;46.14
63343;BME280;49465;57.664;39.686;2023-02-11T14:23:22;99457.06;;;3.22;46.67
63343;BME280;49465;57.664;39.686;2023-02-11T14:26:26;99449.97;;;3.25;46.98
63343;BME280;49465;57.664;39.686;2023-02-11T14:29:16;99443.34;;;3.37;46.52
63343;BME280;49465;57.664;39.686;2023-02-11T14:31:57;99442.13;;;3.27;47.09
63343;BME280;49465;57.664;39.686;2023-02-11T14:37:22;99441.13;;;2.93;46.96
63343;BME280;49465;57.664;39.686;2023-02-11T14:40:30;99432.78;;;3.05;46.59
63343;BME280;49465;57.664;39.686;2023-02-11T14:43:12;99426.22;;;2.98;46.92
63343;BME280;49465;57.664;39.686;2023-02-11T14:45:49;99431.47;;;2.77;47.13
63343;BME280;49465;57.664;39.686;2023-02-11T14:48:36;99430.78;;;2.93;47.41
63343;BME280;49465;57.664;39.686;2023-02-11T14:51:49;99434.59;;;2.84;47.25
63343;BME280;49465;57.664;39.686;2023-02-11T14:54:23;99421.25;;;2.93;45.90
63343;BME280;49465;57.664;39.686;2023-02-11T14:57:14;99417.53;;;2.99;46.97
63343;BME280;49465;57.664;39.686;2023-02-11T15:00:03;99410.19;;;2.90;46.51
63343;BME280;49465;57.664;39.686;2023-02-11T15:02:37;99424.63;;;2.76;46.97
63343;BME280;49465;57.664;39.686;2023-02-11T15:07:57;99420.53;;;2.90;47.13
63343;BME280;49465;57.664;39.686;2023-02-11T15:10:41;99419.00;;;2.86;47.61
63343;BME280;49465;57.664;39.686;2023-02-11T15:13:20;99417.06;;;2.53;48.37
63343;BME280;49465;57.664;39.686;2023-02-11T15:15:48;99420.84;;;2.46;48.32
63343;BME280;49465;57.664;39.686;2023-02-11T15:18:32;99403.63;;;2.64;48.99
63343;BME280;49465;57.664;39.686;2023-02-11T15:21:08;99399.56;;;2.58;49.31
63343;BME280;49465;57.664;39.686;2023-02-11T15:23:40;99395.94;;;2.43;50.16
63343;BME280;49465;57.664;39.686;2023-02-11T15:26:28;99391.38;;;2.48;50.70
63343;BME280;49465;57.664;39.686;2023-02-11T15:29:01;99386.56;;;2.22;51.41
63343;BME280;49465;57.664;39.686;2023-02-11T15:31:30;99381.25;;;2.44;51.36
63343;BME280;49465;57.664;39.686;2023-02-11T15:34:07;99377.22;;;2.57;51.82
63343;BME280;49465;57.664;39.686;2023-02-11T15:36:45;99371.03;;;2.41;52.49
63343;BME280;49465;57.664;39.686;2023-02-11T15:39:31;99375.09;;;2.65;52.73
63343;BME280;49465;57.664;39.686;2023-02-11T15:42:19;99369.41;;;2.76;52.27
63343;BME280;49465;57.664;39.686;2023-02-11T15:48:04;99370.63;;;2.69;53.28
63343;BME280;49465;57.664;39.686;2023-02-11T15:50:39;99373.34;;;2.47;52.87
63343;BME280;49465;57.664;39.686;2023-02-11T15:53:35;99367.53;;;2.80;52.86
63343;BME280;49465;57.664;39.686;2023-02-11T15:56:26;99364.69;;;2.67;54.03
63343;BME280;49465;57.664;39.686;2023-02-11T15:59:24;99364.81;;;2.64;54.10
63343;BME280;49465;57.664;39.686;2023-02-11T16:02:50;99363.22;;;2.61;54.33
63343;BME280;49465;57.664;39.686;2023-02-11T16:05:06;99359.34;;;2.51;53.03
63343;BME280;49465;57.664;39.686;2023-02-11T16:07:56;99357.22;;;2.78;53.42